Time;durP1;ratioP1;P1;durP2;ratioP2;P2;SDS_P1;SDS_P2;PMS_P1;PMS_P2;Temp;Humidity;BMP_temperature;BMP_pressure;BME280_temperature;BME280_humidity;BME280_pressure;Samples;Min_cycle;Max_cycle;Signal;HPM_P1;HPM_P2
2024/04/24 00:00:53;;;;;;;2.17;1.87;;;;;;;7.07;48.58;98412.66;5493342;26;42965;-81
2024/04/24 00:03:22;;;;;;;2.00;1.70;;;;;;;6.96;48.95;98401.88;5493806;26;42503;-80
2024/04/24 00:05:51;;;;;;;5.33;2.10;;;;;;;6.90;49.00;98392.56;5493773;26;41968;-80
2024/04/24 00:08:23;;;;;;;3.93;2.17;;;;;;;6.84;49.56;98393.72;5495408;26;40284;-78
2024/04/24 00:10:54;;;;;;;3.60;1.90;;;;;;;6.75;49.71;98383.72;5493655;26;41915;-81
2024/04/24 00:13:23;;;;;;;2.97;2.10;;;;;;;6.66;49.66;98371.06;5493582;26;43686;-79
2024/04/24 00:15:52;;;;;;;1.90;1.70;;;;;;;6.74;49.27;98394.31;5494495;26;43373;-80
2024/04/24 00:18:23;;;;;;;2.30;1.53;;;;;;;6.70;49.20;98388.38;5462129;26;39914;-80
2024/04/24 00:20:56;;;;;;;2.80;1.80;;;;;;;6.74;49.04;98389.91;5494837;26;41780;-79
2024/04/24 00:23:28;;;;;;;2.50;1.90;;;;;;;6.61;49.75;98367.81;5493533;26;41698;-79
2024/04/24 00:25:58;;;;;;;2.20;2.00;;;;;;;6.58;49.92;98373.25;5493300;26;42359;-80
2024/04/24 00:28:25;;;;;;;2.43;1.73;;;;;;;6.47;50.18;98363.31;5494854;26;41803;-80
2024/04/24 00:30:58;;;;;;;4.53;2.10;;;;;;;6.36;49.86;98349.03;5493097;26;40762;-79
2024/04/24 00:33:28;;;;;;;3.10;2.43;;;;;;;6.38;50.15;98360.31;5494776;26;43735;-80
2024/04/24 00:35:57;;;;;;;2.87;2.20;;;;;;;6.36;50.16;98375.34;5493231;26;42327;-79
2024/04/24 00:38:28;;;;;;;2.67;1.90;;;;;;;6.25;50.04;98360.13;5493442;26;39971;-80
2024/04/24 00:40:57;;;;;;;3.00;2.27;;;;;;;6.22;50.39;98364.69;5492789;26;41695;-80
2024/04/24 00:43:27;;;;;;;3.50;2.20;;;;;;;6.00;50.00;98342.16;5492999;26;44025;-81
2024/04/24 00:45:57;;;;;;;2.57;1.90;;;;;;;5.98;50.36;98341.41;5492948;26;42324;-79
2024/04/24 00:48:27;;;;;;;2.97;2.20;;;;;;;5.87;50.55;98325.31;5493165;26;39011;-78
2024/04/24 00:50:57;;;;;;;2.43;2.13;;;;;;;5.92;50.88;98341.72;5492889;26;43953;-78
2024/04/24 00:53:29;;;;;;;2.43;2.23;;;;;;;5.74;50.93;98321.63;5494846;26;42438;-80
2024/04/24 00:55:59;;;;;;;2.13;1.93;;;;;;;5.65;50.72;98316.84;5492869;26;43753;-79
2024/04/24 00:58:28;;;;;;;3.03;2.30;;;;;;;5.59;51.09;98307.47;5494891;26;40126;-79
2024/04/24 01:00:59;;;;;;;2.80;2.47;;;;;;;5.60;51.19;98314.44;5492510;26;42624;-79
2024/04/24 01:03:28;;;;;;;2.60;2.40;;;;;;;5.62;51.35;98327.50;5494717;26;42883;-78
2024/04/24 01:05:57;;;;;;;2.77;2.50;;;;;;;5.61;51.31;98326.66;5493936;26;42433;-81
2024/04/24 01:08:29;;;;;;;3.17;2.87;;;;;;;5.48;51.72;98311.59;5492546;26;40907;-80
2024/04/24 01:10:58;;;;;;;3.80;3.10;;;;;;;5.45;51.56;98314.34;5493039;26;41387;-79
2024/04/24 01:13:29;;;;;;;3.00;2.60;;;;;;;5.34;51.79;98294.75;5494590;26;43025;-80
2024/04/24 01:16:04;;;;;;;3.47;3.03;;;;;;;5.49;51.95;98331.66;5499311;26;43627;-80
2024/04/24 01:18:36;;;;;;;4.30;3.30;;;;;;;5.32;51.73;98298.38;5498991;26;40079;-80
2024/04/24 01:21:07;;;;;;;3.43;2.90;;;;;;;5.28;51.96;98297.69;5500141;26;41868;-81
2024/04/24 01:23:48;;;;;;;3.10;2.80;;;;;;;5.37;52.01;98331.38;5493113;26;41712;-79
2024/04/24 01:26:23;;;;;;;2.73;2.53;;;;;;;5.24;52.05;98311.03;5493170;26;40677;-79
2024/04/24 01:28:56;;;;;;;3.70;3.20;;;;;;;5.23;52.30;98325.09;5492866;26;39527;-79
2024/04/24 01:31:25;;;;;;;5.17;3.57;;;;;;;5.09;52.47;98310.03;5494188;26;42989;-79
2024/04/24 01:33:54;;;;;;;4.23;2.80;;;;;;;5.04;52.58;98298.91;5494352;26;42967;-81
2024/04/24 01:36:23;;;;;;;3.50;2.97;;;;;;;4.93;52.24;98285.47;5462466;26;42520;-78
2024/04/24 01:38:52;;;;;;;4.53;3.20;;;;;;;5.08;52.54;98310.94;5492626;26;38456;-80
2024/04/24 01:41:21;;;;;;;3.40;2.87;;;;;;;4.91;52.23;98288.16;5493982;26;41590;-80
2024/04/24 01:43:48;;;;;;;4.30;3.50;;;;;;;4.91;52.19;98289.94;5492477;26;43821;-81
2024/04/24 01:46:20;;;;;;;3.97;3.40;;;;;;;4.80;52.43;98279.13;5493876;26;42359;-79
2024/04/24 01:48:49;;;;;;;3.57;3.00;;;;;;;4.84;52.50;98292.00;5494356;26;40362;-79
2024/04/24 01:51:18;;;;;;;5.07;3.00;;;;;;;4.69;52.55;98264.75;5494152;26;41910;-79
2024/04/24 01:53:47;;;;;;;2.57;2.37;;;;;;;4.78;52.72;98286.22;5494263;26;43972;-80
2024/04/24 01:56:16;;;;;;;2.97;2.67;;;;;;;4.72;52.51;98282.09;5493723;26;42375;-79
2024/04/24 01:58:45;;;;;;;2.97;2.63;;;;;;;4.83;52.39;98299.94;5492472;26;40744;-79
2024/04/24 02:01:15;;;;;;;3.47;2.93;;;;;;;4.76;52.32;98285.44;5492278;26;42773;-79
2024/04/24 02:03:46;;;;;;;3.33;2.97;;;;;;;4.73;52.30;98293.44;5494137;26;42827;-80
2024/04/24 02:06:17;;;;;;;5.10;3.17;;;;;;;4.58;52.57;98280.13;5493763;26;43089;-80
2024/04/24 02:08:46;;;;;;;3.53;2.83;;;;;;;4.71;51.97;98306.63;5493839;25;39193;-80
2024/04/24 02:11:19;;;;;;;3.60;3.00;;;;;;;4.69;52.60;98304.09;5492403;26;40550;-80
2024/04/24 02:13:48;;;;;;;5.13;2.43;;;;;;;4.67;52.52;98299.84;5494260;26;44050;-80
2024/04/24 02:16:17;;;;;;;4.83;3.20;;;;;;;4.62;52.51;98300.06;5493876;26;42530;-80
2024/04/24 02:18:49;;;;;;;2.87;2.67;;;;;;;4.48;52.66;98273.63;5494144;26;39886;-80
2024/04/24 02:21:18;;;;;;;2.87;2.30;;;;;;;4.44;52.29;98266.00;5493739;26;41743;-78
2024/04/24 02:23:47;;;;;;;2.47;2.20;;;;;;;4.46;52.50;98275.47;5493748;26;44092;-78
2024/04/24 02:26:13;;;;;;;2.77;2.50;;;;;;;4.47;52.19;98279.78;5493959;26;42538;-80
2024/04/24 02:28:43;;;;;;;2.47;2.20;;;;;;;4.38;52.20;98267.13;5494057;26;40189;-80
2024/04/24 02:31:12;;;;;;;3.63;2.50;;;;;;;4.41;52.36;98277.47;5493530;26;41879;-78
2024/04/24 02:33:41;;;;;;;2.73;2.13;;;;;;;4.24;52.65;98259.06;5491721;26;43059;-79
2024/04/24 02:36:13;;;;;;;2.47;2.10;;;;;;;4.27;52.99;98270.25;5493416;26;43442;-79
2024/04/24 02:38:42;;;;;;;3.03;2.73;;;;;;;4.13;53.37;98242.97;5492126;26;41018;-81
2024/04/24 02:41:12;;;;;;;3.57;2.47;;;;;;;4.01;54.30;98225.22;5490612;26;42817;-79
2024/04/24 02:43:41;;;;;;;3.20;2.90;;;;;;;4.08;53.77;98248.44;5493509;26;42466;-79
2024/04/24 02:46:10;;;;;;;2.73;2.50;;;;;;;4.16;53.68;98263.81;5492979;26;42279;-80
2024/04/24 02:48:36;;;;;;;4.43;3.07;;;;;;;4.13;53.97;98259.56;5493140;26;41043;-80
2024/04/24 02:51:06;;;;;;;2.83;2.60;;;;;;;4.09;53.71;98260.59;5491452;26;41772;-80
2024/04/24 02:53:38;;;;;;;3.50;2.60;;;;;;;4.03;54.43;98236.47;5493078;26;42831;-79
2024/04/24 02:56:08;;;;;;;2.90;2.57;;;;;;;4.11;54.09;98247.44;5491626;26;42074;-81
2024/04/24 02:58:37;;;;;;;4.37;3.27;;;;;;;4.18;54.29;98259.34;5493133;26;39804;-78
2024/04/24 03:01:13;;;;;;;3.43;2.60;;;;;;;4.16;53.88;98250.72;5493014;26;41665;-78
2024/04/24 03:03:42;;;;;;;3.17;2.40;;;;;;;4.00;53.83;98220.88;5492576;26;42811;-78
2024/04/24 03:06:12;;;;;;;2.70;2.40;;;;;;;4.12;53.55;98243.91;5492908;26;42027;-79
2024/04/24 03:08:43;;;;;;;2.83;2.33;;;;;;;4.12;53.67;98236.03;5492829;26;41316;-79
2024/04/24 03:11:13;;;;;;;2.13;1.93;;;;;;;4.13;54.34;98219.41;5492419;26;42575;-79
2024/04/24 03:13:42;;;;;;;3.50;3.20;;;;;;;4.02;57.83;98185.84;5493103;26;42776;-79
2024/04/24 03:16:11;;;;;;;4.20;3.50;;;;;;;4.20;57.04;98202.50;5490866;26;43240;-80
2024/04/24 03:18:40;;;;;;;3.73;3.33;;;;;;;4.30;56.44;98216.84;5492859;26;39878;-80
2024/04/24 03:21:10;;;;;;;3.90;3.13;;;;;;;4.29;55.96;98210.75;5491032;26;41932;-78
2024/04/24 03:23:39;;;;;;;3.57;3.00;;;;;;;4.39;55.87;98219.03;5492583;26;42543;-78
2024/04/24 03:26:11;;;;;;;3.73;2.97;;;;;;;4.38;55.55;98225.19;5490444;26;40565;-80
2024/04/24 03:28:41;;;;;;;4.20;3.33;;;;;;;4.27;55.55;98214.38;5492633;26;40030;-79
2024/04/24 03:31:10;;;;;;;2.63;2.43;;;;;;;4.29;55.73;98217.78;5491965;26;42907;-79
2024/04/24 03:33:40;;;;;;;3.30;3.00;;;;;;;4.19;55.90;98211.28;5491980;26;42720;-80
2024/04/24 03:36:09;;;;;;;2.70;2.47;;;;;;;4.20;55.69;98205.09;5490167;26;42462;-79
2024/04/24 03:38:38;;;;;;;2.87;2.47;;;;;;;4.24;55.34;98204.03;5490774;26;41250;-78
2024/04/24 03:41:07;;;;;;;3.13;2.80;;;;;;;4.31;55.42;98205.44;5492040;26;41702;-80
2024/04/24 03:43:39;;;;;;;2.93;2.63;;;;;;;4.37;56.00;98201.66;5460116;26;41724;-80
2024/04/24 03:46:09;;;;;;;4.20;2.50;;;;;;;4.41;56.98;98204.06;5491814;26;42147;-79
2024/04/24 03:48:38;;;;;;;3.20;2.87;;;;;;;4.54;57.03;98218.28;5459735;26;38634;-81
2024/04/24 03:51:07;;;;;;;3.53;3.00;;;;;;;4.52;57.03;98208.78;5490191;26;42680;-80
2024/04/24 03:53:36;;;;;;;2.80;2.50;;;;;;;4.61;56.40;98219.69;5492040;26;44061;-78
2024/04/24 03:56:06;;;;;;;3.10;2.80;;;;;;;4.47;56.14;98181.94;5495387;26;41736;-79
2024/04/24 03:58:35;;;;;;;2.93;2.43;;;;;;;4.48;56.62;98189.72;5493684;26;38888;-80
2024/04/24 04:01:07;;;;;;;3.20;2.90;;;;;;;4.64;56.20;98201.19;5494912;26;43029;-79
2024/04/24 04:03:37;;;;;;;3.60;2.93;;;;;;;4.76;55.99;98215.47;5495104;26;42959;-80
2024/04/24 04:06:06;;;;;;;3.13;2.83;;;;;;;4.80;55.84;98221.41;5495191;26;42693;-80
2024/04/24 04:08:35;;;;;;;3.03;2.47;;;;;;;4.70;55.76;98193.00;5463242;26;38922;-79
2024/04/24 04:11:05;;;;;;;3.73;3.00;;;;;;;4.69;55.67;98183.47;5493504;26;41164;-79
2024/04/24 04:13:34;;;;;;;5.17;3.50;;;;;;;4.87;55.92;98207.06;5493590;26;43474;-79
2024/04/24 04:16:03;;;;;;;3.27;2.90;;;;;;;4.88;55.77;98198.25;5493122;26;42174;-79
2024/04/24 04:18:35;;;;;;;4.03;3.50;;;;;;;4.97;56.06;98210.91;5493561;26;39929;-80
2024/04/24 04:21:04;;;;;;;5.17;3.90;;;;;;;4.83;56.98;98168.78;5495012;26;42383;-80
2024/04/24 04:23:33;;;;;;;3.90;3.13;;;;;;;5.06;56.30;98202.59;5494937;26;43986;-79
2024/04/24 04:26:03;;;;;;;4.87;3.20;;;;;;;5.13;56.22;98203.13;5494177;26;43139;-78
2024/04/24 04:28:32;;;;;;;4.80;3.70;;;;;;;5.07;57.06;98175.41;5494603;26;41116;-79
2024/04/24 04:31:01;;;;;;;3.70;3.20;;;;;;;5.05;56.56;98166.78;5494156;26;41991;-80
2024/04/24 04:33:31;;;;;;;4.17;3.70;;;;;;;5.16;56.63;98174.09;5461917;26;43285;-81
2024/04/24 04:36:05;;;;;;;6.57;4.00;;;;;;;5.33;56.52;98190.66;5494434;26;42009;-80
2024/04/24 04:38:34;;;;;;;4.20;3.53;;;;;;;5.30;56.89;98177.72;5494356;26;41138;-81
2024/04/24 04:41:03;;;;;;;6.90;4.80;;;;;;;5.23;57.33;98152.69;5494390;26;42039;-80
2024/04/24 04:43:32;;;;;;;5.00;4.47;;;;;;;5.41;56.89;98172.75;5492744;26;42694;-79
2024/04/24 04:46:01;;;;;;;4.87;4.37;;;;;;;5.34;56.39;98158.22;5492390;26;42099;-79
2024/04/24 04:48:30;;;;;;;4.53;4.00;;;;;;;5.53;56.71;98175.66;5492519;26;39796;-80
2024/04/24 04:51:05;;;;;;;4.67;3.63;;;;;;;5.55;56.81;98165.94;5491975;26;42975;-81
2024/04/24 04:53:34;;;;;;;5.57;4.57;;;;;;;5.55;57.83;98153.63;5494527;26;43837;-79
2024/04/24 04:56:03;;;;;;;5.13;3.73;;;;;;;5.80;57.18;98182.06;5492213;26;42221;-79
2024/04/24 04:58:33;;;;;;;6.67;4.60;;;;;;;5.74;57.58;98169.25;5492613;26;39994;-78
2024/04/24 05:01:02;;;;;;;6.40;4.97;;;;;;;5.87;57.35;98178.16;5461489;26;40173;-79
2024/04/24 05:03:31;;;;;;;6.10;4.97;;;;;;;5.82;57.63;98166.19;5493423;26;42909;-80
2024/04/24 05:06:00;;;;;;;5.90;5.17;;;;;;;5.90;57.68;98170.16;5491927;26;42049;-80
2024/04/24 05:08:34;;;;;;;9.03;6.70;;;;;;;5.88;57.83;98169.38;5492167;26;40471;-79
2024/04/24 05:11:03;;;;;;;7.10;6.33;;;;;;;5.94;57.60;98155.91;5493657;26;41863;-79
2024/04/24 05:13:32;;;;;;;7.97;5.87;;;;;;;5.99;57.45;98151.25;5493607;26;44361;-79
2024/04/24 05:16:01;;;;;;;6.73;6.03;;;;;;;6.08;57.17;98158.63;5491346;26;42200;-79
2024/04/24 05:18:30;;;;;;;6.53;5.70;;;;;;;6.18;56.70;98166.84;5461291;26;40715;-79
2024/04/24 05:21:01;;;;;;;9.40;6.53;;;;;;;6.27;56.45;98176.00;5491743;26;41696;-80
2024/04/24 05:23:32;;;;;;;8.07;5.93;;;;;;;6.27;57.21;98168.13;5494031;26;42494;-79
2024/04/24 05:29:03;;;;;;;7.80;5.97;;;;;;;6.25;57.03;98162.09;5493810;26;42528;-80
2024/04/24 05:29:06;;;;;;;7.23;6.07;;;;;;;6.30;56.88;98152.19;5493541;26;40123;-79
2024/04/24 05:31:37;;;;;;;6.97;6.20;;;;;;;6.32;56.40;98164.28;5493074;26;41818;-79
2024/04/24 05:34:06;;;;;;;7.33;6.63;;;;;;;6.29;56.42;98153.97;5491720;26;41834;-81
2024/04/24 05:36:35;;;;;;;7.37;6.03;;;;;;;6.48;56.24;98177.41;5491783;26;43274;-79
2024/04/24 05:39:07;;;;;;;8.40;6.07;;;;;;;6.52;56.22;98180.72;5493415;26;40090;-79
2024/04/24 05:41:36;;;;;;;6.43;5.80;;;;;;;6.53;55.70;98180.66;5491277;26;42132;-80
2024/04/24 05:44:05;;;;;;;7.60;6.40;;;;;;;6.52;55.77;98167.56;5461502;26;41470;-79
2024/04/24 05:46:34;;;;;;;10.40;7.37;;;;;;;6.55;55.96;98162.16;5493069;26;42171;-78
2024/04/24 05:49:03;;;;;;;7.07;5.93;;;;;;;6.66;55.73;98181.63;5492706;26;41116;-79
2024/04/24 05:51:32;;;;;;;7.10;5.97;;;;;;;6.55;55.64;98159.53;5493457;26;41509;-80
2024/04/24 05:54:01;;;;;;;7.17;5.80;;;;;;;6.41;55.73;98139.25;5491601;26;41721;-79
2024/04/24 05:56:33;;;;;;;6.73;5.97;;;;;;;6.54;56.43;98166.56;5493416;26;42168;-80
2024/04/24 05:59:03;;;;;;;6.13;5.53;;;;;;;6.45;56.04;98148.66;5493260;26;39992;-79
2024/04/24 06:01:32;;;;;;;7.07;6.37;;;;;;;6.59;55.93;98172.38;5491138;26;41871;-79
2024/04/24 06:04:01;;;;;;;7.87;5.40;;;;;;;6.58;56.63;98183.84;5491459;26;42679;-80
2024/04/24 06:06:30;;;;;;;9.53;6.10;;;;;;;6.47;56.27;98149.41;5491048;26;42222;-80
2024/04/24 06:08:59;;;;;;;7.97;6.00;;;;;;;6.51;56.79;98155.34;5493325;26;42387;-79
2024/04/24 06:11:28;;;;;;;6.53;5.53;;;;;;;6.67;56.31;98166.69;5490919;26;42828;-80
2024/04/24 06:14:00;;;;;;;8.93;6.60;;;;;;;6.69;56.73;98164.81;5492946;26;42752;-79
2024/04/24 06:16:29;;;;;;;7.60;6.80;;;;;;;6.77;57.53;98150.28;5493039;26;43287;-80
2024/04/24 06:18:58;;;;;;;7.20;6.47;;;;;;;6.89;57.46;98161.03;5494325;26;39891;-80
2024/04/24 06:21:28;;;;;;;8.00;6.37;;;;;;;6.87;58.15;98147.09;5495373;26;41635;-80
2024/04/24 06:23:58;;;;;;;8.37;6.80;;;;;;;6.96;57.84;98151.81;5493844;26;42804;-79
2024/04/24 06:26:27;;;;;;;8.13;6.50;;;;;;;7.01;58.04;98142.72;5492237;26;40736;-80
2024/04/24 06:28:56;;;;;;;9.00;6.97;;;;;;;7.21;57.87;98162.59;5493378;26;40166;-80
2024/04/24 06:31:32;;;;;;;7.03;6.33;;;;;;;7.31;57.63;98158.47;5492582;26;42582;-80
2024/04/24 06:34:02;;;;;;;7.97;6.83;;;;;;;7.41;58.31;98159.63;5460646;26;42944;-80
2024/04/24 06:36:32;;;;;;;7.80;7.00;;;;;;;7.40;57.94;98147.38;5462101;26;20246;-79
2024/04/24 06:39:03;;;;;;;7.57;6.67;;;;;;;7.61;57.82;98166.28;5491622;26;39972;-79
2024/04/24 06:41:33;;;;;;;9.13;6.57;;;;;;;7.69;57.61;98168.44;5491048;26;42413;-80
2024/04/24 06:44:02;;;;;;;7.37;6.57;;;;;;;7.61;58.29;98147.00;5492846;26;43001;-79
2024/04/24 06:46:33;;;;;;;7.53;6.70;;;;;;;7.61;59.18;98144.38;5492406;26;42045;-80
2024/04/24 06:49:03;;;;;;;7.83;6.73;;;;;;;7.52;60.07;98135.25;5493005;25;39604;-79
2024/04/24 06:51:32;;;;;;;8.77;6.93;;;;;;;7.41;61.72;98132.44;5460260;26;40351;-79
2024/04/24 06:54:02;;;;;;;8.13;7.20;;;;;;;7.40;63.66;98143.91;5492479;26;44141;-80
2024/04/24 06:56:32;;;;;;;8.23;7.20;;;;;;;7.31;64.64;98140.03;5492285;26;41775;-79
2024/04/24 06:59:01;;;;;;;7.67;6.80;;;;;;;7.18;65.08;98124.13;5490949;26;41014;-79
2024/04/24 07:01:30;;;;;;;8.73;6.90;;;;;;;7.11;65.71;98120.19;5492070;26;41632;-78
2024/04/24 07:04:02;;;;;;;6.90;5.97;;;;;;;7.14;67.68;98132.31;5491938;26;42991;-80
2024/04/24 07:06:31;;;;;;;6.60;6.00;;;;;;;6.87;68.00;98094.47;5490223;26;41164;-79
2024/04/24 07:09:01;;;;;;;8.17;6.70;;;;;;;7.01;68.49;98115.56;5490071;26;40308;-79
2024/04/24 07:11:30;;;;;;;8.30;6.50;;;;;;;7.00;70.04;98113.88;5491712;26;42920;-78
2024/04/24 07:13:59;;;;;;;8.57;6.27;;;;;;;7.05;70.46;98119.69;5491835;26;42945;-79
2024/04/24 07:16:29;;;;;;;8.83;6.50;;;;;;;7.04;70.92;98097.81;5490088;26;43298;-79
2024/04/24 07:19:07;;;;;;;8.43;6.47;;;;;;;7.33;71.32;98119.72;5491576;26;41264;-79
2024/04/24 07:21:36;;;;;;;6.00;5.40;;;;;;;7.37;71.84;98110.69;5489696;26;41979;-81
2024/04/24 07:24:05;;;;;;;8.00;6.40;;;;;;;7.57;71.74;98107.66;5490034;26;43979;-82
2024/04/24 07:26:35;;;;;;;6.60;5.93;;;;;;;7.75;71.03;98089.00;5491589;26;42159;-78
2024/04/24 07:29:04;;;;;;;7.40;6.50;;;;;;;8.10;70.39;98105.22;5493258;26;39809;-81
2024/04/24 07:31:34;;;;;;;9.37;6.27;;;;;;;8.46;70.69;98112.56;5492444;26;40587;-80
2024/04/24 07:34:03;;;;;;;8.10;6.23;;;;;;;8.73;69.14;98105.44;5492930;26;42742;-79
2024/04/24 07:36:34;;;;;;;7.83;6.73;;;;;;;8.92;68.58;98102.41;5492651;26;43137;-79
2024/04/24 07:39:03;;;;;;;7.20;6.03;;;;;;;9.10;67.60;98124.94;5494779;26;40014;-80
2024/04/24 07:41:33;;;;;;;6.67;6.03;;;;;;;9.08;67.12;98115.41;5492488;26;41702;-80
2024/04/24 07:44:02;;;;;;;8.30;6.77;;;;;;;9.28;67.16;98122.81;5494710;26;42704;-81
2024/04/24 07:46:31;;;;;;;7.07;6.37;;;;;;;9.33;66.82;98126.84;5492108;26;40895;-81
2024/04/24 07:49:00;;;;;;;8.40;6.23;;;;;;;9.27;66.45;98102.66;5494662;26;41115;-79
2024/04/24 07:51:29;;;;;;;7.10;6.27;;;;;;;9.19;66.62;98092.59;5492565;26;40946;-82
2024/04/24 07:54:01;;;;;;;8.43;6.63;;;;;;;9.29;67.28;98095.44;5494345;26;42492;-78
2024/04/24 07:56:30;;;;;;;8.20;7.27;;;;;;;9.31;66.65;98106.75;5494294;26;43520;-80
2024/04/24 07:59:00;;;;;;;7.70;6.83;;;;;;;9.29;66.29;98103.38;5494356;26;41294;-80
2024/04/24 08:01:29;;;;;;;7.57;6.77;;;;;;;9.43;66.25;98121.75;5461994;26;40067;-82
2024/04/24 08:03:59;;;;;;;7.97;6.50;;;;;;;9.48;66.18;98106.44;5494492;26;42830;-79
2024/04/24 08:06:28;;;;;;;8.30;7.23;;;;;;;9.70;65.72;98092.53;5494150;26;42389;-81
2024/04/24 08:08:57;;;;;;;7.23;6.57;;;;;;;10.23;63.95;98128.41;5494489;26;41339;-79
2024/04/24 08:11:29;;;;;;;7.93;7.13;;;;;;;10.50;62.66;98125.53;5491829;26;41245;-79
2024/04/24 08:13:58;;;;;;;7.53;6.80;;;;;;;10.74;61.95;98131.66;5494175;26;43799;-80
2024/04/24 08:16:27;;;;;;;6.83;6.13;;;;;;;10.85;60.34;98127.38;5494033;26;42389;-81
2024/04/24 08:18:57;;;;;;;7.43;6.67;;;;;;;11.10;59.39;98136.00;5494139;26;40997;-81
2024/04/24 08:21:26;;;;;;;7.60;6.60;;;;;;;11.14;57.54;98132.13;5461683;26;41597;-81
2024/04/24 08:23:55;;;;;;;5.90;5.30;;;;;;;11.23;58.18;98135.91;5494210;26;43864;-80
2024/04/24 08:26:25;;;;;;;6.43;5.67;;;;;;;11.33;56.84;98141.34;5494219;26;43033;-79
2024/04/24 08:28:57;;;;;;;6.30;5.73;;;;;;;11.51;57.17;98161.94;5492521;26;39936;-80
2024/04/24 08:31:26;;;;;;;9.13;6.17;;;;;;;11.58;56.73;98165.00;5493890;26;42920;-82
2024/04/24 08:33:56;;;;;;;8.40;6.40;;;;;;;11.54;56.43;98155.56;5494198;26;42914;-80
2024/04/24 08:36:25;;;;;;;8.50;5.70;;;;;;;11.35;56.48;98134.13;5492104;26;42817;-79
2024/04/24 08:38:55;;;;;;;6.47;5.80;;;;;;;11.67;56.93;98182.00;5493543;26;41574;-81
2024/04/24 08:41:24;;;;;;;6.37;5.77;;;;;;;11.86;56.52;98176.97;5493838;26;41938;-79
2024/04/24 08:43:54;;;;;;;8.33;6.00;;;;;;;11.93;56.14;98174.69;5493972;26;42933;-79
2024/04/24 08:46:30;;;;;;;6.80;5.27;;;;;;;11.95;56.38;98165.63;5491769;26;41958;-79
2024/04/24 08:49:02;;;;;;;7.53;6.23;;;;;;;11.97;55.67;98153.09;5494135;26;40107;-79
2024/04/24 08:51:34;;;;;;;5.90;5.27;;;;;;;12.09;55.74;98161.91;5492105;26;41590;-79
2024/04/24 08:54:06;;;;;;;6.53;5.30;;;;;;;12.37;55.88;98165.81;5461940;26;43522;-79
2024/04/24 08:56:40;;;;;;;5.80;5.20;;;;;;;12.50;55.53;98167.34;5461322;26;44021;-79
2024/04/24 08:59:17;;;;;;;5.33;4.83;;;;;;;12.29;55.09;98153.16;5494150;26;41321;-82
2024/04/24 09:01:59;;;;;;;6.07;5.47;;;;;;;12.30;54.54;98168.13;5491533;26;41787;-79
2024/04/24 09:04:31;;;;;;;5.63;4.93;;;;;;;12.08;54.47;98160.19;5493821;26;43965;-79
2024/04/24 09:07:01;;;;;;;5.97;4.63;;;;;;;11.90;54.31;98151.03;5491345;26;41363;-81
2024/04/24 09:09:30;;;;;;;5.63;4.73;;;;;;;12.00;54.07;98159.94;5491942;26;41024;-79
2024/04/24 09:12:04;;;;;;;5.27;4.73;;;;;;;11.97;54.86;98142.47;5493507;26;42996;-80
2024/04/24 09:14:34;;;;;;;8.40;4.93;;;;;;;12.17;54.66;98156.81;5493426;26;44147;-80
2024/04/24 09:17:06;;;;;;;5.27;4.63;;;;;;;12.35;53.42;98151.84;5491885;26;42372;-80
2024/04/24 09:19:37;;;;;;;5.40;4.90;;;;;;;12.74;52.17;98150.38;5491758;26;39628;-80
2024/04/24 09:22:06;;;;;;;7.30;5.00;;;;;;;14.05;49.62;98147.16;5491517;26;42194;-79
2024/04/24 09:24:38;;;;;;;5.43;4.67;;;;;;;16.34;47.05;98170.31;5493356;26;44007;-81
2024/04/24 09:27:07;;;;;;;5.63;5.13;;;;;;;17.40;43.59;98173.13;5491314;26;43267;-80
2024/04/24 09:29:37;;;;;;;5.50;5.00;;;;;;;18.24;43.36;98186.72;5491710;26;41648;-80
2024/04/24 09:32:12;;;;;;;5.13;4.60;;;;;;;18.63;40.40;98183.56;5491059;26;41350;-80
2024/04/24 09:34:45;;;;;;;5.93;5.33;;;;;;;18.81;40.52;98186.09;5491097;26;42868;-80
2024/04/24 09:37:15;;;;;;;6.13;5.23;;;;;;;18.71;39.62;98202.34;5491468;26;43004;-82
2024/04/24 09:39:44;;;;;;;5.17;4.60;;;;;;;18.16;40.03;98172.47;5492989;26;39916;-82
2024/04/24 09:42:14;;;;;;;5.33;4.83;;;;;;;17.72;40.50;98169.00;5491215;26;42537;-81
2024/04/24 09:44:45;;;;;;;5.23;4.00;;;;;;;17.25;40.58;98163.94;5491542;26;43010;-79
2024/04/24 09:47:17;;;;;;;4.40;4.00;;;;;;;16.98;41.79;98164.03;5493134;26;42200;-81
2024/04/24 09:49:49;;;;;;;4.50;4.07;;;;;;;16.73;41.54;98187.84;5460824;26;39077;-80
2024/04/24 09:52:15;;;;;;;4.67;3.77;;;;;;;16.29;40.93;98184.16;5459137;26;42126;-81
2024/04/24 09:54:45;;;;;;;4.67;4.13;;;;;;;15.84;41.28;98173.34;5460467;26;42956;-81
2024/04/24 09:57:17;;;;;;;4.77;4.07;;;;;;;15.58;42.54;98173.13;5491207;26;43796;-81
2024/04/24 09:59:52;;;;;;;4.60;4.20;;;;;;;15.36;42.91;98158.25;5460976;26;41443;-80
2024/04/24 10:02:28;;;;;;;4.20;3.80;;;;;;;15.04;43.50;98139.91;5493040;26;42975;-80
2024/04/24 10:05:03;;;;;;;4.40;4.00;;;;;;;14.84;44.05;98146.22;5491339;26;44319;-79
2024/04/24 10:07:36;;;;;;;3.63;3.33;;;;;;;14.58;43.40;98124.63;5492835;26;42277;-80
2024/04/24 10:10:10;;;;;;;4.33;3.93;;;;;;;14.44;43.55;98117.03;5493031;26;40905;-80
2024/04/24 10:12:44;;;;;;;4.80;3.80;;;;;;;14.65;44.18;98117.75;5460521;26;41889;-79
2024/04/24 10:15:19;;;;;;;4.40;3.87;;;;;;;15.13;44.40;98132.88;5491423;26;42814;-80
2024/04/24 10:17:53;;;;;;;4.40;4.00;;;;;;;15.39;43.44;98139.31;5491275;26;41024;-81
2024/04/24 10:20:23;;;;;;;4.50;4.10;;;;;;;15.60;44.38;98130.28;5492929;26;41636;-81
2024/04/24 10:22:54;;;;;;;4.23;3.43;;;;;;;15.82;44.17;98100.59;5492782;26;42601;-79
2024/04/24 10:25:26;;;;;;;4.53;4.13;;;;;;;16.07;42.25;98121.25;5491035;26;41945;-80
2024/04/24 10:27:58;;;;;;;4.43;4.03;;;;;;;15.88;42.39;98118.69;5493062;26;42146;-80
2024/04/24 10:30:29;;;;;;;3.40;3.10;;;;;;;15.83;42.18;98128.94;5492496;26;40135;-81
2024/04/24 10:33:04;;;;;;;4.20;3.80;;;;;;;15.77;42.27;98138.41;5492581;26;41434;-81
2024/04/24 10:35:33;;;;;;;4.57;4.17;;;;;;;15.45;41.48;98105.88;5492210;26;43830;-81
2024/04/24 10:38:07;;;;;;;4.00;3.53;;;;;;;15.54;41.62;98136.19;5490795;26;42804;-80
2024/04/24 10:40:36;;;;;;;4.10;3.77;;;;;;;15.36;42.18;98110.25;5460010;26;40209;-80
2024/04/24 10:43:07;;;;;;;3.30;3.00;;;;;;;15.29;41.65;98109.16;5490516;26;41476;-81
2024/04/24 10:45:39;;;;;;;3.47;3.23;;;;;;;15.29;42.26;98121.66;5491954;26;44177;-80
2024/04/24 10:48:13;;;;;;;3.93;3.40;;;;;;;14.98;41.88;98100.47;5492548;26;41995;-80
2024/04/24 10:50:43;;;;;;;5.40;4.10;;;;;;;14.98;41.94;98120.97;5490090;26;40179;-81
2024/04/24 10:53:15;;;;;;;4.23;3.83;;;;;;;14.94;42.86;98108.91;5492039;26;41654;-81
2024/04/24 10:55:54;;;;;;;6.13;3.90;;;;;;;14.99;43.20;98109.31;5490112;26;43956;-80
2024/04/24 10:58:24;;;;;;;4.93;4.03;;;;;;;14.76;42.95;98089.28;5491836;26;42273;-80
2024/04/24 11:00:54;;;;;;;5.47;4.97;;;;;;;14.66;43.91;98083.94;5491843;26;39476;-84
2024/04/24 11:03:28;;;;;;;4.10;3.77;;;;;;;14.53;44.17;98084.22;5492625;26;41836;-79
2024/04/24 11:06:08;;;;;;;3.60;3.30;;;;;;;14.45;43.52;98086.75;5492881;26;41906;-83
2024/04/24 11:08:37;;;;;;;4.30;3.57;;;;;;;14.20;44.07;98087.25;5494445;26;42196;-79
2024/04/24 11:11:07;;;;;;;4.00;3.70;;;;;;;14.02;43.77;98079.06;5498122;26;40818;-81
2024/04/24 11:13:36;;;;;;;5.07;3.93;;;;;;;14.05;44.65;98057.50;5499428;26;41463;-80
2024/04/24 11:16:06;;;;;;;4.37;3.93;;;;;;;14.59;43.88;98078.31;5498271;26;41930;-82
2024/04/24 11:18:38;;;;;;;4.37;3.97;;;;;;;15.30;43.40;98078.81;5495455;26;43326;-81
2024/04/24 11:21:07;;;;;;;4.43;4.03;;;;;;;16.25;43.16;98085.72;5492094;26;41695;-82
2024/04/24 11:23:37;;;;;;;4.37;3.97;;;;;;;16.22;42.77;98083.34;5461971;26;42314;-80
2024/04/24 11:26:06;;;;;;;5.80;3.97;;;;;;;15.92;42.12;98079.19;5492551;26;42496;-82
2024/04/24 11:28:35;;;;;;;3.87;3.30;;;;;;;15.56;42.69;98094.22;5494868;26;42209;-81
2024/04/24 11:31:05;;;;;;;4.23;3.90;;;;;;;15.10;42.33;98115.34;5492668;26;40019;-81
2024/04/24 11:33:35;;;;;;;2.27;1.80;;;;;;;14.38;43.14;98096.22;5492902;26;41734;-79
2024/04/24 11:36:07;;;;;;;1.23;0.90;;;;;;;13.64;45.28;98090.41;5494336;26;42851;-80
2024/04/24 11:38:36;;;;;;;0.70;0.70;;;;;;;12.77;47.28;98097.00;5493241;26;42416;-81
2024/04/24 11:41:07;;;;;;;0.60;0.60;;;;;;;11.75;48.70;98079.66;5492658;26;41302;-79
2024/04/24 11:43:36;;;;;;;0.60;0.60;;;;;;;10.97;49.96;98086.69;5493807;26;42029;-77
2024/04/24 11:46:06;;;;;;;0.80;0.70;;;;;;;10.27;50.98;98091.97;5461546;26;41885;-80
2024/04/24 11:48:38;;;;;;;1.00;0.80;;;;;;;9.62;52.48;98085.16;5493720;26;42409;-79
2024/04/24 11:51:10;;;;;;;0.80;0.60;;;;;;;8.94;53.59;98056.47;5494159;26;40134;-79
2024/04/24 11:53:39;;;;;;;0.60;0.60;;;;;;;8.61;54.30;98056.13;5461948;26;41440;-80